createdAt,value
2022-08-17T00:02:06.574Z,27.37
2022-08-17T00:04:51.076Z,27.33
2022-08-17T00:07:17.579Z,27.30
2022-08-17T00:09:44.050Z,27.28
2022-08-17T00:12:44.422Z,27.25
2022-08-17T00:14:57.191Z,27.27
2022-08-17T00:17:23.962Z,27.21
2022-08-17T00:19:50.420Z,27.19
2022-08-17T00:22:32.107Z,27.15
2022-08-17T00:25:05.363Z,27.17
2022-08-17T00:27:31.888Z,27.11
2022-08-17T00:29:58.372Z,27.09
2022-08-17T00:33:11.593Z,27.07
2022-08-17T00:35:14.319Z,27.07
2022-08-17T00:37:40.862Z,27.02
2022-08-17T00:40:10.149Z,27.01
2022-08-17T00:42:36.856Z,26.98
2022-08-17T00:45:06.399Z,26.97
2022-08-17T00:47:33.103Z,26.93
2022-08-17T00:50:00.215Z,26.91
2022-08-17T00:52:32.911Z,26.94
2022-08-17T00:55:00.015Z,26.87
2022-08-17T00:57:31.187Z,26.89
2022-08-17T01:00:03.752Z,26.86
2022-08-17T01:02:41.226Z,26.84
2022-08-17T01:05:14.836Z,26.79
2022-08-17T01:07:43.007Z,26.74
2022-08-17T01:10:59.042Z,26.72
2022-08-17T01:13:02.591Z,26.71
2022-08-17T01:15:31.180Z,26.67
2022-08-17T01:17:57.780Z,26.65
2022-08-17T01:20:24.322Z,26.63
2022-08-17T01:22:50.967Z,26.59
2022-08-17T01:25:19.346Z,26.57
2022-08-17T01:27:47.112Z,26.54
2022-08-17T01:30:58.658Z,26.52
2022-08-17T01:33:00.236Z,26.52
2022-08-17T01:35:26.872Z,26.48
2022-08-17T01:37:53.392Z,26.45
2022-08-17T01:40:33.612Z,26.55
2022-08-17T01:43:05.912Z,26.45
2022-08-17T01:45:33.912Z,26.40
2022-08-17T01:48:00.476Z,26.38
2022-08-17T01:50:31.388Z,26.39
2022-08-17T01:53:15.621Z,26.47
2022-08-17T01:55:49.200Z,26.39
2022-08-17T01:58:16.106Z,26.31
2022-08-17T02:00:47.123Z,26.29
2022-08-17T02:03:27.104Z,26.27
2022-08-17T02:05:53.812Z,26.24
2022-08-17T02:08:39.077Z,26.23
2022-08-17T02:11:12.073Z,26.24
2022-08-17T02:13:39.290Z,26.19
2022-08-17T02:16:06.256Z,26.18
2022-08-17T02:18:33.184Z,26.16
2022-08-17T02:21:00.011Z,26.13
2022-08-17T02:23:30.452Z,26.18
2022-08-17T02:25:59.377Z,26.13
2022-08-17T02:28:26.649Z,26.10
2022-08-17T02:31:02.002Z,26.09
2022-08-17T02:33:42.491Z,26.08
2022-08-17T02:36:11.721Z,26.06
2022-08-17T02:38:39.845Z,26.04
2022-08-17T02:41:06.644Z,26.03
2022-08-17T02:43:33.530Z,26.00
2022-08-17T02:46:00.163Z,26.01
2022-08-17T02:48:30.398Z,25.99
2022-08-17T02:50:59.331Z,25.98
2022-08-17T02:53:26.379Z,25.95
2022-08-17T02:55:53.376Z,25.94
2022-08-17T02:58:35.579Z,25.92
2022-08-17T03:01:05.264Z,25.93
2022-08-17T03:03:32.206Z,25.89
2022-08-17T03:05:58.708Z,25.87
2022-08-17T03:08:25.632Z,25.85
2022-08-17T03:10:52.836Z,25.84
2022-08-17T03:13:20.128Z,25.82
2022-08-17T03:15:48.543Z,25.80
2022-08-17T03:18:19.159Z,25.80
2022-08-17T03:20:54.981Z,25.76
2022-08-17T03:23:24.312Z,25.74
2022-08-17T03:25:53.650Z,25.72
2022-08-17T03:28:21.469Z,25.70
2022-08-17T03:30:48.042Z,25.67
2022-08-17T03:33:14.767Z,25.67
2022-08-17T03:35:42.143Z,25.65
2022-08-17T03:38:10.935Z,25.64
2022-08-17T03:40:57.676Z,25.61
2022-08-17T03:43:26.385Z,25.60
2022-08-17T03:46:28.943Z,25.58
2022-08-17T03:49:16.693Z,25.57
2022-08-17T03:52:02.005Z,25.55
2022-08-17T03:54:46.886Z,25.53
2022-08-17T03:57:13.472Z,25.50
2022-08-17T03:59:41.010Z,25.48
2022-08-17T04:02:23.211Z,25.59
2022-08-17T04:04:51.107Z,25.44
2022-08-17T04:07:22.791Z,25.48
2022-08-17T04:09:49.352Z,25.41
2022-08-17T04:12:18.375Z,25.40
2022-08-17T04:14:52.827Z,25.38
2022-08-17T04:17:27.876Z,25.46
2022-08-17T04:19:55.276Z,25.37
2022-08-17T04:22:31.291Z,25.36
2022-08-17T04:25:16.103Z,25.46
2022-08-17T04:27:42.639Z,25.33
2022-08-17T04:30:09.864Z,25.32
2022-08-17T04:33:04.253Z,25.46
2022-08-17T04:35:37.271Z,25.34
2022-08-17T04:38:04.221Z,25.29
2022-08-17T04:40:49.685Z,25.29
2022-08-17T04:43:19.766Z,25.32
2022-08-17T04:45:51.226Z,25.29
2022-08-17T04:48:22.409Z,25.30
2022-08-17T04:50:51.649Z,25.30
2022-08-17T04:53:19.515Z,25.29
2022-08-17T04:55:46.297Z,25.29
2022-08-17T04:58:12.857Z,25.28
2022-08-17T05:00:39.997Z,25.28
2022-08-17T05:03:06.661Z,25.28
2022-08-17T05:05:36.545Z,25.31
2022-08-17T05:08:05.530Z,25.30
2022-08-17T05:10:37.064Z,25.33
2022-08-17T05:13:17.492Z,25.31
2022-08-17T05:15:47.884Z,25.23
2022-08-17T05:18:15.692Z,25.15
2022-08-17T05:20:43.005Z,25.05
2022-08-17T05:23:12.351Z,24.96
2022-08-17T05:25:43.264Z,24.89
2022-08-17T05:28:14.426Z,24.73
2022-08-17T05:30:44.230Z,24.64
2022-08-17T05:33:14.209Z,24.54
2022-08-17T05:35:44.039Z,24.44
2022-08-17T05:38:11.347Z,24.32
2022-08-17T05:40:38.404Z,24.23
2022-08-17T05:43:11.658Z,24.22
2022-08-17T05:45:57.661Z,24.20
2022-08-17T05:48:39.602Z,24.01
2022-08-17T05:51:37.910Z,24.00
2022-08-17T05:54:16.545Z,23.89
2022-08-17T05:56:59.921Z,23.88
2022-08-17T05:59:30.568Z,23.79
2022-08-17T06:02:24.724Z,23.86
2022-08-17T06:05:17.841Z,23.94
2022-08-17T06:07:50.637Z,23.82
2022-08-17T06:10:28.334Z,23.80
2022-08-17T06:13:20.065Z,23.83
2022-08-17T06:16:04.583Z,23.78
2022-08-17T06:19:00.330Z,23.86
2022-08-17T06:21:32.818Z,23.79
2022-08-17T06:24:07.051Z,23.85
2022-08-17T06:26:43.059Z,23.84
2022-08-17T06:29:35.437Z,23.88
2022-08-17T06:32:03.192Z,23.81
2022-08-17T06:34:29.966Z,23.81
2022-08-17T06:37:06.304Z,23.86
2022-08-17T06:39:36.100Z,23.85
2022-08-17T06:43:02.753Z,23.95
2022-08-17T06:45:13.767Z,23.90
2022-08-17T06:48:00.709Z,24.02
2022-08-17T06:50:40.054Z,24.13
2022-08-17T06:53:34.731Z,24.24
2022-08-17T06:56:10.198Z,24.24
2022-08-17T06:58:40.251Z,24.28
2022-08-17T07:01:13.044Z,24.41
2022-08-17T07:03:57.570Z,24.58
2022-08-17T07:06:29.403Z,24.64
2022-08-17T07:09:02.319Z,24.76
2022-08-17T07:11:40.498Z,24.90
2022-08-17T07:14:48.391Z,25.11
2022-08-17T07:17:18.489Z,25.17
2022-08-17T07:19:47.793Z,25.26
2022-08-17T07:22:30.445Z,25.46
2022-08-17T07:25:18.746Z,25.53
2022-08-17T07:27:59.796Z,25.70
2022-08-17T07:30:44.644Z,25.78
2022-08-17T07:33:19.935Z,25.88
2022-08-17T07:35:48.428Z,26.00
2022-08-17T07:38:25.913Z,26.12
2022-08-17T07:40:57.914Z,26.29
2022-08-17T07:43:29.420Z,26.40
2022-08-17T07:46:14.856Z,26.53
2022-08-17T07:48:49.777Z,26.73
2022-08-17T07:51:22.039Z,26.93
2022-08-17T07:53:49.246Z,27.07
2022-08-17T07:56:50.888Z,27.38
2022-08-17T07:59:23.558Z,27.44
2022-08-17T08:01:57.694Z,27.62
2022-08-17T08:05:02.091Z,27.83
2022-08-17T08:07:58.282Z,28.06
2022-08-17T08:10:35.625Z,28.14
2022-08-17T08:13:20.571Z,28.36
2022-08-17T08:15:54.766Z,28.45
2022-08-17T08:18:53.831Z,28.61
2022-08-17T08:21:24.404Z,28.79
2022-08-17T08:24:09.770Z,28.89
2022-08-17T08:27:07.986Z,29.11
2022-08-17T08:29:53.231Z,29.18
2022-08-17T08:32:25.209Z,29.34
2022-08-17T08:35:48.270Z,29.58
2022-08-17T08:38:28.403Z,29.59
2022-08-17T08:41:04.135Z,29.74
2022-08-17T08:43:54.579Z,29.92
2022-08-17T08:46:46.063Z,30.02
2022-08-17T08:50:07.451Z,30.15
2022-08-17T08:52:49.564Z,30.28
2022-08-17T08:55:28.837Z,30.39
2022-08-17T08:58:00.795Z,30.51
2022-08-17T09:00:29.404Z,30.59
2022-08-17T09:03:03.208Z,30.70
2022-08-17T09:05:55.935Z,30.84
2022-08-17T09:08:31.900Z,30.90
2022-08-17T09:11:19.987Z,31.00
2022-08-17T09:14:21.223Z,31.21
2022-08-17T09:17:13.847Z,31.37
2022-08-17T09:19:48.357Z,31.43
2022-08-17T09:22:45.119Z,31.66
2022-08-17T09:25:23.496Z,31.81
2022-08-17T09:28:04.412Z,31.99
2022-08-17T09:30:51.538Z,32.19
2022-08-17T09:33:23.238Z,32.31
2022-08-17T09:35:55.744Z,32.48
2022-08-17T09:38:32.493Z,32.66
2022-08-17T09:40:59.281Z,32.78
2022-08-17T09:43:31.895Z,32.96
2022-08-17T09:46:09.278Z,33.12
2022-08-17T09:48:49.083Z,33.28
2022-08-17T09:51:25.137Z,33.41
2022-08-17T09:53:51.907Z,33.53
2022-08-17T09:57:28.473Z,33.80
2022-08-17T10:00:16.580Z,33.93
2022-08-17T10:03:03.122Z,34.02
2022-08-17T10:05:46.324Z,34.24
2022-08-17T10:08:13.266Z,34.36
2022-08-17T10:10:56.604Z,34.55
2022-08-17T10:13:32.435Z,34.74
2022-08-17T10:16:30.544Z,34.94
2022-08-17T10:18:59.694Z,35.04
2022-08-17T10:21:45.402Z,35.19
2022-08-17T10:24:39.764Z,35.39
2022-08-17T10:27:42.853Z,35.61
2022-08-17T10:30:11.194Z,35.72
2022-08-17T10:32:46.159Z,35.88
2022-08-17T10:35:42.939Z,36.04
2022-08-17T10:38:09.398Z,36.09
2022-08-17T10:40:45.463Z,36.18
2022-08-17T10:43:32.942Z,36.34
2022-08-17T10:46:31.687Z,36.37
2022-08-17T10:49:16.831Z,36.56
2022-08-17T10:51:46.015Z,36.51
2022-08-17T10:54:24.756Z,36.63
2022-08-17T10:56:57.116Z,36.63
2022-08-17T10:59:35.781Z,36.73
2022-08-17T11:02:41.601Z,36.83
2022-08-17T11:05:28.705Z,36.80
2022-08-17T11:08:15.425Z,36.88
2022-08-17T11:11:01.262Z,37.03
2022-08-17T11:13:41.201Z,37.01
2022-08-17T11:16:19.802Z,37.12
2022-08-17T11:19:12.993Z,37.15
2022-08-17T11:21:58.360Z,37.08
2022-08-17T11:24:37.091Z,37.16
2022-08-17T11:27:27.357Z,37.08
2022-08-17T11:30:02.089Z,37.03
2022-08-17T11:32:37.854Z,37.05
2022-08-17T11:35:22.845Z,37.04
2022-08-17T11:37:52.329Z,37.07
2022-08-17T11:40:37.463Z,37.24
2022-08-17T11:43:14.269Z,37.34
2022-08-17T11:45:58.496Z,37.52
2022-08-17T11:49:15.310Z,37.72
2022-08-17T11:52:01.156Z,37.91
2022-08-17T11:54:33.853Z,37.97
2022-08-17T11:57:26.676Z,38.13
2022-08-17T12:00:10.651Z,38.15
2022-08-17T12:02:48.858Z,38.16
2022-08-17T12:05:16.947Z,38.24
2022-08-17T12:07:52.048Z,38.31
2022-08-17T12:10:21.733Z,38.33
2022-08-17T12:12:53.237Z,38.35
2022-08-17T12:15:28.785Z,38.37
2022-08-17T12:17:57.186Z,38.27
2022-08-17T12:20:38.104Z,38.29
2022-08-17T12:23:28.435Z,38.18
2022-08-17T12:26:12.549Z,38.08
2022-08-17T12:28:45.440Z,37.85
2022-08-17T12:31:20.662Z,37.64
2022-08-17T12:33:49.962Z,37.47
2022-08-17T12:36:21.395Z,37.38
2022-08-17T12:39:14.128Z,37.36
2022-08-17T12:41:44.939Z,37.25
2022-08-17T12:44:12.254Z,37.24
2022-08-17T12:47:00.450Z,37.40
2022-08-17T12:49:34.317Z,37.43
2022-08-17T12:52:12.383Z,37.45
2022-08-17T12:54:45.392Z,37.37
2022-08-17T12:57:15.769Z,37.28
2022-08-17T12:59:46.293Z,37.20
2022-08-17T13:02:30.292Z,37.27
2022-08-17T13:04:59.559Z,37.10
2022-08-17T13:07:35.195Z,37.10
2022-08-17T13:10:02.629Z,37.02
2022-08-17T13:12:33.013Z,36.99
2022-08-17T13:15:00.152Z,36.96
2022-08-17T13:17:30.953Z,36.98
2022-08-17T13:19:57.748Z,36.93
2022-08-17T13:22:26.322Z,36.94
2022-08-17T13:24:56.384Z,36.98
2022-08-17T13:27:26.350Z,37.04
2022-08-17T13:30:00.468Z,37.15
2022-08-17T13:32:46.567Z,37.34
2022-08-17T13:35:38.915Z,37.47
2022-08-17T13:38:12.917Z,37.52
2022-08-17T13:40:49.284Z,37.67
2022-08-17T13:43:38.272Z,37.86
2022-08-17T13:46:11.664Z,37.89
2022-08-17T13:48:38.387Z,37.86
2022-08-17T13:51:12.879Z,37.89
2022-08-17T13:53:40.164Z,37.84
2022-08-17T13:56:37.655Z,37.86
2022-08-17T13:59:10.186Z,37.87
2022-08-17T14:01:40.979Z,37.69
2022-08-17T14:04:11.194Z,37.59
2022-08-17T14:07:18.222Z,37.64
2022-08-17T14:09:58.330Z,37.49
2022-08-17T14:12:27.233Z,37.24
2022-08-17T14:14:56.365Z,37.10
2022-08-17T14:17:24.610Z,36.99
2022-08-17T14:19:51.620Z,36.89
2022-08-17T14:22:28.292Z,36.89
2022-08-17T14:24:57.789Z,36.72
2022-08-17T14:27:28.055Z,36.63
2022-08-17T14:29:56.416Z,36.55
2022-08-17T14:32:29.526Z,36.51
2022-08-17T14:34:57.807Z,36.36
2022-08-17T14:37:28.030Z,36.26
2022-08-17T14:40:00.150Z,36.22
2022-08-17T14:42:30.382Z,36.06
2022-08-17T14:44:58.787Z,35.94
2022-08-17T14:47:26.650Z,35.76
2022-08-17T14:49:53.466Z,35.67
2022-08-17T14:52:21.879Z,35.49
2022-08-17T14:54:52.922Z,35.15
2022-08-17T14:57:33.224Z,34.77
2022-08-17T15:00:01.676Z,34.48
2022-08-17T15:02:30.682Z,34.13
2022-08-17T15:05:02.729Z,33.92
2022-08-17T15:07:30.728Z,33.54
2022-08-17T15:09:58.787Z,33.30
2022-08-17T15:12:31.987Z,33.10
2022-08-17T15:15:00.724Z,32.93
2022-08-17T15:17:27.383Z,32.78
2022-08-17T15:20:18.476Z,32.77
2022-08-17T15:22:49.379Z,32.64
2022-08-17T15:25:16.771Z,32.61
2022-08-17T15:27:44.080Z,32.62
2022-08-17T15:30:11.787Z,32.63
2022-08-17T15:32:40.930Z,32.67
2022-08-17T15:35:13.951Z,32.69
2022-08-17T15:37:41.515Z,32.75
2022-08-17T15:40:09.663Z,32.81
2022-08-17T15:42:36.237Z,32.88
2022-08-17T15:45:07.930Z,32.98
2022-08-17T15:47:34.551Z,32.99
2022-08-17T15:50:01.156Z,33.02
2022-08-17T15:52:30.100Z,33.07
2022-08-17T15:55:01.230Z,33.16
2022-08-17T15:57:27.906Z,33.13
2022-08-17T15:59:58.626Z,33.16
2022-08-17T16:03:46.346Z,33.26
2022-08-17T16:05:22.098Z,33.29
2022-08-17T16:07:51.690Z,33.30
2022-08-17T16:10:19.371Z,33.35
2022-08-17T16:12:48.345Z,33.39
2022-08-17T16:15:16.290Z,33.40
2022-08-17T16:17:42.937Z,33.41
2022-08-17T16:20:19.973Z,33.44
2022-08-17T16:22:48.511Z,33.44
2022-08-17T16:25:18.836Z,33.43
2022-08-17T16:27:46.673Z,33.41
2022-08-17T16:30:17.629Z,33.42
2022-08-17T16:32:45.350Z,33.38
2022-08-17T16:35:16.195Z,33.37
2022-08-17T16:37:44.645Z,33.33
2022-08-17T16:40:13.929Z,33.31
2022-08-17T16:42:40.939Z,33.27
2022-08-17T16:45:14.713Z,33.31
2022-08-17T16:47:42.059Z,33.20
2022-08-17T16:50:11.721Z,33.15
2022-08-17T16:52:39.584Z,33.12
2022-08-17T16:55:08.267Z,33.11
2022-08-17T16:57:37.556Z,33.08
2022-08-17T17:00:19.395Z,33.09
2022-08-17T17:02:48.222Z,33.09
2022-08-17T17:05:29.655Z,33.15
2022-08-17T17:08:12.865Z,33.20
2022-08-17T17:10:44.438Z,33.09
2022-08-17T17:13:17.618Z,33.06
2022-08-17T17:15:53.566Z,32.96
2022-08-17T17:18:26.466Z,32.94
2022-08-17T17:20:57.289Z,32.93
2022-08-17T17:23:37.464Z,32.92
2022-08-17T17:26:34.324Z,32.89
2022-08-17T17:29:25.297Z,32.81
2022-08-17T17:32:37.827Z,32.83
2022-08-17T17:35:16.461Z,32.65
2022-08-17T17:37:45.005Z,32.49
2022-08-17T17:40:52.255Z,32.61
2022-08-17T17:43:38.147Z,32.38
2022-08-17T17:46:27.176Z,32.45
2022-08-17T17:48:55.215Z,32.22
2022-08-17T17:52:06.440Z,32.15
2022-08-17T17:54:41.110Z,32.18
2022-08-17T17:57:13.666Z,32.08
2022-08-17T18:00:18.600Z,32.19
2022-08-17T18:03:18.947Z,32.06
2022-08-17T18:05:57.670Z,31.92
2022-08-17T18:08:49.306Z,31.96
2022-08-17T18:11:35.044Z,31.76
2022-08-17T18:14:17.847Z,31.74
2022-08-17T18:16:46.432Z,31.53
2022-08-17T18:19:21.150Z,31.50
2022-08-17T18:21:53.551Z,31.40
2022-08-17T18:24:35.982Z,31.43
2022-08-17T18:27:38.235Z,31.36
2022-08-17T18:30:28.916Z,31.32
2022-08-17T18:33:22.303Z,31.21
2022-08-17T18:35:59.229Z,31.00
2022-08-17T18:38:33.911Z,30.88
2022-08-17T18:41:02.117Z,30.78
2022-08-17T18:43:53.051Z,30.81
2022-08-17T18:46:36.784Z,30.81
2022-08-17T18:49:27.734Z,30.78
2022-08-17T18:52:16.016Z,30.69
2022-08-17T18:55:05.907Z,30.62
2022-08-17T18:57:35.763Z,30.33
2022-08-17T19:00:14.723Z,30.30
2022-08-17T19:02:52.130Z,30.20
2022-08-17T19:05:35.698Z,30.15
2022-08-17T19:08:34.135Z,30.12
2022-08-17T19:11:34.056Z,29.97
2022-08-17T19:14:08.127Z,29.56
2022-08-17T19:16:44.843Z,29.47
2022-08-17T19:19:17.324Z,29.30
2022-08-17T19:21:55.491Z,29.16
2022-08-17T19:24:25.409Z,29.04
2022-08-17T19:27:15.757Z,29.13
2022-08-17T19:30:01.730Z,28.88
2022-08-17T19:32:37.771Z,28.74
2022-08-17T19:35:07.434Z,28.68
2022-08-17T19:38:03.113Z,28.81
2022-08-17T19:40:52.117Z,28.61
2022-08-17T19:43:56.153Z,28.76
2022-08-17T19:46:30.308Z,28.51
2022-08-17T19:49:06.084Z,28.50
2022-08-17T19:51:51.229Z,28.59
2022-08-17T19:54:20.937Z,28.56
2022-08-17T19:56:55.849Z,28.56
2022-08-17T19:59:49.426Z,28.60
2022-08-17T20:02:37.370Z,28.67
2022-08-17T20:06:09.137Z,28.75
2022-08-17T20:08:39.991Z,28.63
2022-08-17T20:11:21.161Z,28.67
2022-08-17T20:13:55.046Z,28.57
2022-08-17T20:16:22.990Z,28.52
2022-08-17T20:18:53.621Z,28.57
2022-08-17T20:21:29.114Z,28.56
2022-08-17T20:23:55.578Z,28.47
2022-08-17T20:26:27.451Z,28.52
2022-08-17T20:29:31.953Z,28.66
2022-08-17T20:32:18.846Z,28.53
2022-08-17T20:34:47.279Z,28.42
2022-08-17T20:37:13.721Z,28.39
2022-08-17T20:40:09.469Z,28.42
2022-08-17T20:42:37.152Z,28.35
2022-08-17T20:45:24.192Z,28.51
2022-08-17T20:48:21.625Z,28.34
2022-08-17T20:50:55.974Z,28.34
2022-08-17T20:53:47.547Z,28.43
2022-08-17T20:56:53.769Z,28.41
2022-08-17T20:59:27.538Z,28.25
2022-08-17T21:02:12.459Z,28.30
2022-08-17T21:04:52.332Z,28.14
2022-08-17T21:07:43.533Z,28.26
2022-08-17T21:10:25.641Z,28.24
2022-08-17T21:13:15.418Z,28.24
2022-08-17T21:15:42.185Z,28.02
2022-08-17T21:18:25.983Z,28.09
2022-08-17T21:21:17.601Z,28.16
2022-08-17T21:23:56.646Z,28.06
2022-08-17T21:26:33.045Z,27.91
2022-08-17T21:29:32.444Z,27.97
2022-08-17T21:32:03.361Z,27.91
2022-08-17T21:34:44.839Z,27.83
2022-08-17T21:37:20.381Z,27.87
2022-08-17T21:39:53.104Z,27.82
2022-08-17T21:42:36.154Z,27.87
2022-08-17T21:45:22.602Z,27.77
2022-08-17T21:48:05.551Z,27.67
2022-08-17T21:50:32.329Z,27.61
2022-08-17T21:53:02.428Z,27.59
2022-08-17T21:55:31.390Z,27.56
2022-08-17T21:58:14.521Z,27.52
2022-08-17T22:00:44.109Z,27.47
2022-08-17T22:03:23.766Z,27.57
2022-08-17T22:05:51.566Z,27.41
2022-08-17T22:08:24.700Z,27.41
2022-08-17T22:11:01.061Z,27.43
2022-08-17T22:13:29.675Z,27.34
2022-08-17T22:16:05.906Z,27.40
2022-08-17T22:18:43.460Z,27.25
2022-08-17T22:21:09.967Z,27.23
2022-08-17T22:24:03.036Z,27.28
2022-08-17T22:27:03.477Z,27.34
2022-08-17T22:29:58.896Z,27.32
2022-08-17T22:32:35.365Z,27.20
2022-08-17T22:35:33.164Z,27.26
2022-08-17T22:38:18.187Z,27.49
2022-08-17T22:40:51.121Z,27.09
2022-08-17T22:43:25.999Z,27.05
2022-08-17T22:45:56.139Z,26.98
2022-08-17T22:48:27.474Z,26.95
2022-08-17T22:51:12.574Z,27.02
2022-08-17T22:54:13.101Z,26.98
2022-08-17T22:57:06.813Z,26.97
2022-08-17T22:59:37.291Z,26.87
2022-08-17T23:02:26.779Z,26.94
2022-08-17T23:30:50.456Z,26.66
2022-08-17T23:33:29.902Z,26.66
2022-08-17T23:36:00.038Z,26.52
2022-08-17T23:38:27.651Z,26.49
2022-08-17T23:40:55.314Z,26.43
2022-08-17T23:43:25.152Z,26.40
2022-08-17T23:45:56.216Z,26.36
2022-08-17T23:48:28.417Z,26.34
2022-08-17T23:51:03.995Z,26.33
2022-08-17T23:53:34.571Z,26.36
2022-08-17T23:56:09.091Z,26.29
2022-08-17T23:58:38.455Z,26.28
